Time;durP1;ratioP1;P1;durP2;ratioP2;P2;SDS_P1;SDS_P2;PMS_P1;PMS_P2;Temp;Humidity;BMP_temperature;BMP_pressure;BME280_temperature;BME280_humidity;BME280_pressure;Samples;Min_cycle;Max_cycle;Signal;HPM_P1;HPM_P2
2021/12/09 00:01:38;;;;;;;4.30;1.98;;;5.80;99.90;;;;;;7400580;19;20322;-54
2021/12/09 00:04:11;;;;;;;5.15;2.38;;;5.80;99.90;;;;;;7403884;19;20143;-54
2021/12/09 00:06:39;;;;;;;3.50;2.00;;;5.80;99.90;;;;;;7403687;19;20331;-53
2021/12/09 00:09:13;;;;;;;2.35;1.80;;;5.80;99.90;;;;;;7401742;19;20224;-54
2021/12/09 00:11:45;;;;;;;2.28;1.42;;;5.80;99.90;;;;;;7403188;19;20158;-54
2021/12/09 00:14:16;;;;;;;3.63;1.50;;;5.80;99.90;;;;;;7401911;19;20132;-54
2021/12/09 00:16:43;;;;;;;3.35;1.95;;;5.70;99.90;;;;;;7397458;19;20120;-54
2021/12/09 00:19:09;;;;;;;3.78;2.05;;;5.70;99.90;;;;;;7404840;19;20123;-54
2021/12/09 00:21:41;;;;;;;3.08;1.80;;;5.70;99.90;;;;;;7402771;19;20132;-50
2021/12/09 00:24:07;;;;;;;3.72;1.77;;;5.70;99.90;;;;;;7398564;19;20151;-50
2021/12/09 00:26:38;;;;;;;2.72;1.63;;;5.70;99.90;;;;;;7398560;19;20116;-50
2021/12/09 00:29:10;;;;;;;2.90;1.48;;;5.70;99.90;;;;;;7397928;19;20123;-50
2021/12/09 00:31:39;;;;;;;3.40;1.23;;;5.70;99.90;;;;;;7394137;19;20142;-50
2021/12/09 00:34:08;;;;;;;4.20;1.58;;;5.70;99.90;;;;;;7403286;19;20119;-50
2021/12/09 00:36:41;;;;;;;5.32;2.25;;;5.70;99.90;;;;;;7391753;19;20180;-50
2021/12/09 00:39:10;;;;;;;3.85;1.50;;;5.70;99.90;;;;;;7385107;19;20299;-50
2021/12/09 00:41:42;;;;;;;3.88;1.73;;;5.70;99.90;;;;;;7396755;19;20120;-50
2021/12/09 00:44:09;;;;;;;2.03;1.20;;;5.80;99.90;;;;;;7398018;19;20138;-50
2021/12/09 00:46:35;;;;;;;3.95;2.17;;;5.80;99.90;;;;;;7398185;19;20176;-50
2021/12/09 00:49:02;;;;;;;3.22;1.63;;;5.80;99.90;;;;;;7397602;19;20579;-50
2021/12/09 00:51:29;;;;;;;3.17;1.40;;;5.70;99.90;;;;;;7399254;19;20365;-50
2021/12/09 00:54:00;;;;;;;5.45;1.70;;;5.60;99.90;;;;;;7399679;19;20124;-50
2021/12/09 00:56:30;;;;;;;2.70;1.40;;;5.60;99.90;;;;;;7399505;19;20239;-50
2021/12/09 00:58:58;;;;;;;3.50;1.70;;;5.60;99.90;;;;;;7395611;19;20119;-50
2021/12/09 01:01:27;;;;;;;3.08;1.30;;;5.70;99.90;;;;;;7397294;19;20123;-50
2021/12/09 01:03:56;;;;;;;5.03;1.27;;;5.60;99.90;;;;;;7399844;19;20119;-50
2021/12/09 01:06:25;;;;;;;1.75;1.20;;;5.60;99.90;;;;;;7374072;19;20414;-50
2021/12/09 01:08:58;;;;;;;2.28;1.42;;;5.50;99.90;;;;;;7379011;19;20239;-50
2021/12/09 01:11:25;;;;;;;2.35;1.33;;;5.50;99.90;;;;;;7399831;19;20116;-50
2021/12/09 01:13:54;;;;;;;3.45;1.48;;;5.60;99.90;;;;;;7401021;19;20126;-50
2021/12/09 01:16:20;;;;;;;4.70;1.40;;;5.60;99.90;;;;;;7389609;19;20450;-50
2021/12/09 01:18:47;;;;;;;3.78;2.45;;;5.40;99.90;;;;;;7396250;19;20126;-50
2021/12/09 01:21:16;;;;;;;5.53;2.92;;;5.30;99.90;;;;;;7395444;19;20116;-50
2021/12/09 01:23:47;;;;;;;6.35;2.55;;;5.30;99.90;;;;;;7396719;19;20120;-50
2021/12/09 01:26:13;;;;;;;5.45;3.15;;;5.20;99.90;;;;;;7394409;19;20151;-50
2021/12/09 01:29:05;;;;;;;8.63;4.50;;;5.30;99.90;;;;;;7396747;19;20155;-50
2021/12/09 01:31:36;;;;;;;8.45;3.40;;;5.20;99.90;;;;;;7393146;19;20147;-50
2021/12/09 01:34:05;;;;;;;3.47;2.13;;;5.20;99.90;;;;;;7395371;19;20116;-50
2021/12/09 01:36:36;;;;;;;5.07;2.78;;;5.30;99.90;;;;;;7401109;19;20323;-50
2021/12/09 01:39:08;;;;;;;4.70;1.83;;;5.20;99.90;;;;;;7398038;19;20221;-50
2021/12/09 01:41:39;;;;;;;3.15;1.60;;;5.20;99.90;;;;;;7399044;19;20127;-50
2021/12/09 01:44:08;;;;;;;2.20;1.63;;;5.10;99.90;;;;;;7397759;19;20131;-50
2021/12/09 01:46:39;;;;;;;4.55;2.10;;;5.10;99.90;;;;;;7397170;19;20179;-50
2021/12/09 01:49:09;;;;;;;2.42;1.33;;;5.00;99.90;;;;;;7396061;19;20131;-50
2021/12/09 01:51:35;;;;;;;3.90;2.42;;;4.90;99.90;;;;;;7387602;19;20127;-54
2021/12/09 01:54:05;;;;;;;6.30;2.75;;;4.80;99.90;;;;;;7400103;19;20159;-53
2021/12/09 01:56:31;;;;;;;4.63;2.50;;;4.70;99.90;;;;;;7400669;19;20414;-54
2021/12/09 01:59:02;;;;;;;6.13;3.60;;;4.80;99.90;;;;;;7402000;19;20267;-54
2021/12/09 02:01:32;;;;;;;9.27;4.90;;;4.80;99.90;;;;;;7400764;19;20123;-54
2021/12/09 02:04:00;;;;;;;7.57;3.88;;;5.00;99.90;;;;;;7408281;19;20184;-54
2021/12/09 02:06:29;;;;;;;6.63;3.72;;;5.10;99.90;;;;;;7404160;19;20133;-54
2021/12/09 02:08:56;;;;;;;5.10;3.50;;;5.30;99.90;;;;;;7405644;19;20128;-54
2021/12/09 02:11:25;;;;;;;8.50;3.85;;;5.40;99.90;;;;;;7404383;19;20116;-53
2021/12/09 02:13:55;;;;;;;5.45;3.17;;;5.40;99.90;;;;;;7400317;19;20127;-54
2021/12/09 02:16:27;;;;;;;8.80;4.25;;;5.40;99.90;;;;;;7396394;19;20128;-53
2021/12/09 02:18:58;;;;;;;7.70;3.83;;;5.50;99.90;;;;;;7390370;19;20115;-53
2021/12/09 02:21:31;;;;;;;6.25;3.63;;;5.40;99.90;;;;;;7386392;19;20112;-54
2021/12/09 02:24:04;;;;;;;4.90;3.85;;;5.40;99.90;;;;;;7390648;19;20135;-54
2021/12/09 02:26:38;;;;;;;5.75;3.05;;;5.50;99.90;;;;;;7386986;19;20148;-54
2021/12/09 02:29:11;;;;;;;5.75;2.90;;;5.50;99.90;;;;;;7390025;19;20127;-53
2021/12/09 02:31:39;;;;;;;4.70;3.30;;;5.60;99.90;;;;;;7396569;19;20309;-53
2021/12/09 02:34:10;;;;;;;4.93;2.92;;;5.60;99.90;;;;;;7401393;19;20132;-53
2021/12/09 02:36:39;;;;;;;4.47;3.65;;;5.50;99.90;;;;;;7403907;19;20623;-53
2021/12/09 02:39:09;;;;;;;6.55;3.22;;;5.50;99.90;;;;;;7398571;19;20288;-53
2021/12/09 02:41:40;;;;;;;3.75;3.20;;;5.50;99.90;;;;;;7401439;19;20132;-53
2021/12/09 02:44:11;;;;;;;3.78;3.33;;;5.60;99.90;;;;;;7365262;19;20132;-53
2021/12/09 02:46:41;;;;;;;5.30;3.70;;;5.60;99.90;;;;;;7404622;19;20314;-53
2021/12/09 02:49:21;;;;;;;6.53;4.03;;;5.70;99.90;;;;;;7402647;19;20166;-53
2021/12/09 02:51:49;;;;;;;5.57;3.67;;;5.70;99.90;;;;;;7402698;19;20128;-49
2021/12/09 02:54:19;;;;;;;5.72;3.75;;;5.70;99.90;;;;;;7384025;19;20150;-49
2021/12/09 02:56:51;;;;;;;13.07;3.92;;;5.70;99.90;;;;;;7402982;19;20120;-49
2021/12/09 02:59:20;;;;;;;7.40;4.00;;;5.80;99.90;;;;;;7397070;19;20205;-49
2021/12/09 03:02:00;;;;;;;10.00;4.20;;;5.80;99.90;;;;;;7402936;19;20329;-49
2021/12/09 03:04:47;;;;;;;7.40;4.05;;;5.80;99.90;;;;;;7403547;19;20200;-49
2021/12/09 03:07:30;;;;;;;9.07;3.22;;;5.80;99.90;;;;;;7399421;19;20504;-49
2021/12/09 03:10:09;;;;;;;8.85;3.95;;;5.70;99.90;;;;;;7400906;19;20319;-49
2021/12/09 03:12:40;;;;;;;7.60;4.05;;;5.80;99.90;;;;;;7397735;19;20140;-49
2021/12/09 03:15:10;;;;;;;7.50;4.32;;;5.80;99.90;;;;;;7376483;19;20127;-50
2021/12/09 03:17:40;;;;;;;4.97;2.95;;;5.80;99.90;;;;;;7400815;19;20467;-50
2021/12/09 03:20:11;;;;;;;7.28;3.95;;;5.80;99.90;;;;;;7397758;19;20156;-49
2021/12/09 03:22:39;;;;;;;8.48;3.58;;;5.90;99.90;;;;;;7400841;19;20367;-50
2021/12/09 03:25:11;;;;;;;5.40;3.60;;;5.90;99.90;;;;;;7396644;19;20123;-49
2021/12/09 03:27:43;;;;;;;10.15;3.83;;;5.90;99.90;;;;;;7397449;19;20221;-49
2021/12/09 03:30:12;;;;;;;8.32;2.97;;;5.90;99.90;;;;;;7394869;19;20157;-50
2021/12/09 03:32:38;;;;;;;7.13;3.53;;;5.90;99.90;;;;;;7395598;19;20136;-49
2021/12/09 03:35:07;;;;;;;6.85;3.25;;;5.90;99.90;;;;;;7396736;19;20845;-49
2021/12/09 03:37:36;;;;;;;7.22;2.85;;;5.90;99.90;;;;;;7405492;19;20112;-49
2021/12/09 03:40:06;;;;;;;9.52;4.03;;;5.90;99.90;;;;;;7399127;19;20116;-49
2021/12/09 03:42:33;;;;;;;6.60;2.78;;;5.90;99.90;;;;;;7403748;19;20157;-49
2021/12/09 03:45:04;;;;;;;3.47;2.60;;;5.90;99.90;;;;;;7384074;19;20127;-49
2021/12/09 03:47:33;;;;;;;8.52;3.92;;;5.90;99.90;;;;;;7402850;19;20124;-49
2021/12/09 03:50:09;;;;;;;7.13;3.08;;;5.90;99.90;;;;;;7396540;19;20147;-49
2021/12/09 03:52:35;;;;;;;7.00;3.20;;;5.90;99.90;;;;;;7394194;19;20164;-49
2021/12/09 03:55:06;;;;;;;15.88;3.92;;;5.90;99.90;;;;;;7393661;19;20232;-49
2021/12/09 03:57:35;;;;;;;3.13;2.83;;;5.90;99.90;;;;;;7397214;19;20261;-49
2021/12/09 04:00:06;;;;;;;6.53;3.55;;;5.90;99.90;;;;;;7398413;19;20209;-49
2021/12/09 04:02:35;;;;;;;4.20;3.00;;;5.90;99.90;;;;;;7401991;19;20127;-49
2021/12/09 04:05:07;;;;;;;5.85;3.35;;;5.90;99.90;;;;;;7391669;19;20123;-50
2021/12/09 04:07:36;;;;;;;8.27;3.67;;;6.00;99.90;;;;;;7407921;19;20371;-49
2021/12/09 04:10:05;;;;;;;8.82;3.60;;;6.00;99.90;;;;;;7391920;19;20200;-49
2021/12/09 04:12:31;;;;;;;5.63;3.92;;;5.90;99.90;;;;;;7395141;19;20434;-50
2021/12/09 04:14:58;;;;;;;6.25;3.25;;;6.00;99.90;;;;;;7391059;19;20517;-49
2021/12/09 04:17:24;;;;;;;7.60;4.00;;;6.00;99.90;;;;;;7372737;19;20167;-50
2021/12/09 04:19:53;;;;;;;6.65;4.25;;;6.00;99.90;;;;;;7395931;19;20116;-50
2021/12/09 04:22:20;;;;;;;8.90;3.67;;;6.00;99.90;;;;;;7399592;19;20116;-50
2021/12/09 04:24:54;;;;;;;6.35;3.30;;;6.10;99.90;;;;;;7392991;19;20167;-50
2021/12/09 04:27:23;;;;;;;6.55;3.30;;;6.00;99.90;;;;;;7391712;19;20418;-50
2021/12/09 04:29:51;;;;;;;8.10;3.80;;;6.00;99.90;;;;;;7399240;19;20116;-50
2021/12/09 04:32:20;;;;;;;7.00;3.65;;;6.00;99.90;;;;;;7390405;19;20158;-50
2021/12/09 04:34:47;;;;;;;7.82;2.75;;;6.00;99.90;;;;;;7397131;19;20124;-50
2021/12/09 04:37:14;;;;;;;9.60;3.22;;;5.90;99.90;;;;;;7397398;19;20115;-50
2021/12/09 04:39:42;;;;;;;4.55;3.38;;;5.90;99.90;;;;;;7390317;19;20134;-50
2021/12/09 04:42:08;;;;;;;7.50;3.90;;;5.80;99.90;;;;;;7385336;19;20146;-50
2021/12/09 04:44:34;;;;;;;5.25;2.95;;;5.80;99.90;;;;;;7396105;19;20131;-51
2021/12/09 04:47:01;;;;;;;4.95;3.03;;;5.80;99.90;;;;;;7362745;19;20862;-50
2021/12/09 04:49:28;;;;;;;9.93;3.50;;;5.80;99.90;;;;;;7393857;19;20144;-50
2021/12/09 04:52:00;;;;;;;4.80;3.20;;;5.80;99.90;;;;;;7402459;19;20128;-50
2021/12/09 04:54:29;;;;;;;4.97;3.33;;;5.80;99.90;;;;;;7386455;19;20131;-50
2021/12/09 04:56:58;;;;;;;7.97;3.38;;;5.80;99.90;;;;;;7392395;19;20404;-51
2021/12/09 04:59:24;;;;;;;5.65;3.70;;;5.80;99.90;;;;;;7381445;19;20255;-50
2021/12/09 05:01:51;;;;;;;7.03;3.30;;;5.90;99.90;;;;;;7386332;19;20146;-51
2021/12/09 05:04:20;;;;;;;8.57;3.60;;;5.90;99.90;;;;;;7381492;19;20143;-51
2021/12/09 05:06:51;;;;;;;7.35;3.13;;;5.90;99.90;;;;;;7392632;19;20662;-50
2021/12/09 05:09:22;;;;;;;8.02;3.35;;;5.90;99.90;;;;;;7389984;19;20118;-50
2021/12/09 05:11:50;;;;;;;5.10;3.00;;;5.90;99.90;;;;;;7396769;19;20714;-50
2021/12/09 05:14:19;;;;;;;5.47;2.25;;;6.00;99.90;;;;;;7404094;19;20123;-50
2021/12/09 05:16:53;;;;;;;3.28;2.03;;;5.90;99.90;;;;;;7387636;19;20130;-50
2021/12/09 05:19:22;;;;;;;5.25;2.88;;;5.90;99.90;;;;;;7395423;19;20124;-50
2021/12/09 05:21:53;;;;;;;11.73;2.92;;;6.00;99.90;;;;;;7397442;19;20147;-50
2021/12/09 05:24:23;;;;;;;6.93;2.95;;;5.90;99.90;;;;;;7396627;19;20195;-50
2021/12/09 05:26:52;;;;;;;5.35;3.03;;;5.60;99.90;;;;;;7400721;19;20128;-50
2021/12/09 05:29:29;;;;;;;5.43;2.20;;;5.40;99.90;;;;;;7394611;19;20120;-50
2021/12/09 05:32:08;;;;;;;4.15;2.58;;;5.30;99.90;;;;;;7398915;19;20147;-50
2021/12/09 05:34:57;;;;;;;3.25;1.77;;;5.20;99.90;;;;;;7400442;19;20116;-50
2021/12/09 05:37:29;;;;;;;3.53;2.50;;;5.20;99.90;;;;;;7402865;19;20131;-50
2021/12/09 05:40:01;;;;;;;6.63;2.75;;;5.30;99.90;;;;;;7407992;19;20136;-50
2021/12/09 05:42:29;;;;;;;6.22;2.63;;;5.30;99.90;;;;;;7410324;19;20322;-50
2021/12/09 05:45:03;;;;;;;3.40;2.20;;;5.20;99.90;;;;;;7412587;19;20123;-51
2021/12/09 05:47:32;;;;;;;4.55;3.00;;;5.30;99.90;;;;;;7412562;19;20311;-50
2021/12/09 05:50:01;;;;;;;11.27;2.88;;;5.40;99.90;;;;;;7406655;19;20147;-50
2021/12/09 05:52:31;;;;;;;5.25;2.35;;;5.40;99.90;;;;;;7410553;19;20175;-50
2021/12/09 05:54:57;;;;;;;7.20;2.85;;;5.40;99.90;;;;;;7407552;19;20140;-50
2021/12/09 05:57:26;;;;;;;5.55;3.08;;;5.50;99.90;;;;;;7409731;19;20230;-50
2021/12/09 05:59:54;;;;;;;3.00;1.85;;;5.50;99.90;;;;;;7411215;19;20319;-50
2021/12/09 06:02:23;;;;;;;4.95;3.08;;;5.30;99.90;;;;;;7411684;19;20120;-50
2021/12/09 06:04:54;;;;;;;2.72;2.30;;;5.30;99.90;;;;;;7408663;19;20112;-51
2021/12/09 06:07:25;;;;;;;6.05;2.25;;;5.40;99.90;;;;;;7403457;19;20319;-51
2021/12/09 06:09:58;;;;;;;6.78;2.88;;;5.40;99.90;;;;;;7402888;19;20189;-51
2021/12/09 06:12:28;;;;;;;4.47;2.60;;;5.50;99.90;;;;;;7404940;19;20215;-51
2021/12/09 06:14:56;;;;;;;9.48;3.28;;;5.40;99.90;;;;;;7412357;19;20127;-51
2021/12/09 06:17:25;;;;;;;8.40;2.78;;;5.50;99.90;;;;;;7407276;19;20455;-51
2021/12/09 06:19:54;;;;;;;6.32;2.45;;;5.50;99.90;;;;;;7410904;19;20123;-51
2021/12/09 06:22:23;;;;;;;14.15;7.88;;;5.40;99.90;;;;;;7404928;19;20128;-51
2021/12/09 06:24:49;;;;;;;8.68;4.60;;;5.40;99.90;;;;;;7401595;19;20124;-51
2021/12/09 06:27:18;;;;;;;10.02;6.20;;;5.40;99.90;;;;;;7406665;19;20116;-51
2021/12/09 06:29:49;;;;;;;9.82;6.28;;;5.40;99.90;;;;;;7402820;19;20112;-54
2021/12/09 06:32:15;;;;;;;4.32;2.83;;;5.50;99.90;;;;;;7401550;19;20147;-55
2021/12/09 06:34:42;;;;;;;4.53;2.42;;;5.50;99.90;;;;;;7400809;19;20142;-54
2021/12/09 06:37:10;;;;;;;7.80;3.20;;;5.50;99.90;;;;;;7408174;19;20128;-55
2021/12/09 06:39:38;;;;;;;7.03;2.20;;;5.40;99.90;;;;;;7406882;19;20176;-54
2021/12/09 06:42:10;;;;;;;4.70;1.98;;;5.30;99.90;;;;;;7410891;19;20163;-55
2021/12/09 06:44:36;;;;;;;7.10;2.38;;;5.20;99.90;;;;;;7408749;19;20126;-54
2021/12/09 06:47:03;;;;;;;3.55;2.08;;;5.20;99.90;;;;;;7406549;19;20124;-55
2021/12/09 06:49:32;;;;;;;10.07;2.65;;;5.10;99.90;;;;;;7407028;19;20195;-54
2021/12/09 06:52:01;;;;;;;8.90;2.63;;;5.20;99.90;;;;;;7406973;19;20139;-54
2021/12/09 06:54:27;;;;;;;3.90;2.22;;;5.30;99.90;;;;;;7404151;19;20207;-55
2021/12/09 06:56:54;;;;;;;5.63;3.15;;;5.30;99.90;;;;;;7407692;19;20124;-55
2021/12/09 06:59:20;;;;;;;4.60;3.35;;;5.40;99.90;;;;;;7409100;19;20139;-55
2021/12/09 07:01:50;;;;;;;7.07;2.47;;;5.40;99.90;;;;;;7406499;19;20257;-55
2021/12/09 07:04:21;;;;;;;5.80;2.50;;;5.40;99.90;;;;;;7390780;19;20135;-55
2021/12/09 07:06:50;;;;;;;3.92;2.25;;;5.50;99.90;;;;;;7390167;19;20120;-55
2021/12/09 07:09:27;;;;;;;5.88;2.55;;;5.50;99.90;;;;;;7392637;19;20115;-51
2021/12/09 07:11:58;;;;;;;10.23;3.17;;;5.50;99.90;;;;;;7392268;19;20128;-51
2021/12/09 07:14:25;;;;;;;3.55;2.40;;;5.60;99.90;;;;;;7394236;19;20116;-52
2021/12/09 07:16:53;;;;;;;7.88;2.60;;;5.60;99.90;;;;;;7390512;19;20412;-51
2021/12/09 07:19:23;;;;;;;3.05;2.40;;;5.50;99.90;;;;;;7390960;19;20111;-51
2021/12/09 07:21:51;;;;;;;7.68;2.72;;;5.50;99.90;;;;;;7393397;19;20159;-51
2021/12/09 07:24:22;;;;;;;3.67;1.92;;;5.40;99.90;;;;;;7394725;19;22699;-51
2021/12/09 07:26:49;;;;;;;3.08;2.20;;;5.50;99.90;;;;;;7391960;19;20123;-51
2021/12/09 07:29:19;;;;;;;4.25;2.40;;;5.50;99.90;;;;;;7390952;19;20120;-51
2021/12/09 07:31:49;;;;;;;6.32;2.20;;;5.50;99.90;;;;;;7389982;19;20480;-51
2021/12/09 07:34:18;;;;;;;5.15;2.35;;;5.60;99.90;;;;;;7387468;19;20116;-51
2021/12/09 07:36:47;;;;;;;4.43;2.47;;;5.60;99.90;;;;;;7390640;19;20144;-51
2021/12/09 07:39:14;;;;;;;3.58;1.75;;;5.60;99.90;;;;;;7391431;19;20119;-51
2021/12/09 07:41:43;;;;;;;4.57;2.13;;;5.80;99.90;;;;;;7392260;19;20147;-54
2021/12/09 07:44:13;;;;;;;5.25;2.58;;;5.70;99.90;;;;;;7391926;19;20156;-54
2021/12/09 07:46:45;;;;;;;2.83;2.20;;;5.80;99.90;;;;;;7389673;19;20313;-54
2021/12/09 07:49:17;;;;;;;4.90;2.47;;;5.80;99.90;;;;;;7378301;19;21182;-54
2021/12/09 07:51:43;;;;;;;6.20;2.65;;;5.90;99.90;;;;;;7392097;19;20131;-54
2021/12/09 07:54:15;;;;;;;3.63;2.40;;;6.00;99.90;;;;;;7388965;19;20131;-54
2021/12/09 07:56:44;;;;;;;8.95;3.00;;;6.00;99.90;;;;;;7393499;19;20319;-54
2021/12/09 07:59:18;;;;;;;4.18;2.42;;;6.10;99.90;;;;;;7388842;19;20123;-54
2021/12/09 08:01:48;;;;;;;10.13;3.45;;;6.10;99.90;;;;;;7389940;19;20130;-54
2021/12/09 08:04:15;;;;;;;5.63;2.80;;;6.20;99.90;;;;;;7387905;19;20460;-54
2021/12/09 08:06:42;;;;;;;4.90;2.42;;;6.20;99.90;;;;;;7382498;19;20108;-54
2021/12/09 08:09:09;;;;;;;4.78;2.67;;;6.20;99.90;;;;;;7397166;19;20108;-54
2021/12/09 08:11:43;;;;;;;5.97;3.58;;;6.20;99.90;;;;;;7381966;19;20675;-51
2021/12/09 08:14:15;;;;;;;3.03;2.60;;;6.10;99.90;;;;;;7385881;19;20191;-50
2021/12/09 08:16:42;;;;;;;4.78;2.13;;;6.20;99.90;;;;;;7379107;19;21091;-51
2021/12/09 08:19:13;;;;;;;6.38;2.90;;;6.10;99.90;;;;;;7388271;19;20132;-51
2021/12/09 08:21:43;;;;;;;4.43;2.30;;;6.20;99.90;;;;;;7385256;19;20116;-51
2021/12/09 08:24:12;;;;;;;4.35;2.90;;;6.10;99.90;;;;;;7388400;19;20126;-51
2021/12/09 08:26:40;;;;;;;4.65;2.42;;;6.20;99.90;;;;;;7395315;19;20120;-51
2021/12/09 08:29:07;;;;;;;9.50;5.57;;;6.10;99.90;;;;;;7380291;19;20120;-51
2021/12/09 08:31:38;;;;;;;6.72;4.10;;;6.00;99.90;;;;;;7393307;19;20140;-51
2021/12/09 08:34:09;;;;;;;8.77;4.35;;;6.00;99.90;;;;;;7380065;19;20127;-50
2021/12/09 08:36:36;;;;;;;7.25;4.00;;;5.90;99.90;;;;;;7393321;19;20133;-50
2021/12/09 08:39:04;;;;;;;23.70;11.90;;;6.10;99.90;;;;;;7391155;19;20112;-50
2021/12/09 08:41:33;;;;;;;5.95;3.35;;;6.10;99.90;;;;;;7381637;19;20127;-54
2021/12/09 08:44:02;;;;;;;3.33;2.40;;;6.20;99.90;;;;;;7403590;19;20124;-54
2021/12/09 08:46:29;;;;;;;5.90;2.40;;;6.20;99.90;;;;;;7383534;19;20132;-54
2021/12/09 08:48:56;;;;;;;7.22;2.47;;;6.30;99.90;;;;;;7385691;19;20128;-54
2021/12/09 08:51:25;;;;;;;10.02;4.40;;;6.30;99.90;;;;;;7399223;19;20116;-54
2021/12/09 08:53:53;;;;;;;6.60;5.00;;;6.30;99.90;;;;;;7393113;19;20541;-54
2021/12/09 08:56:22;;;;;;;3.08;2.80;;;6.40;99.90;;;;;;7403409;19;20127;-54
2021/12/09 08:58:50;;;;;;;5.00;3.05;;;6.40;99.90;;;;;;7402416;19;20146;-54
2021/12/09 09:01:17;;;;;;;3.08;2.75;;;6.40;99.90;;;;;;7405721;19;20151;-54
2021/12/09 09:03:46;;;;;;;3.47;2.47;;;6.50;99.90;;;;;;7404715;19;20159;-54
2021/12/09 09:06:15;;;;;;;5.47;2.55;;;6.60;99.90;;;;;;7404414;19;20112;-54
2021/12/09 09:08:42;;;;;;;5.90;3.33;;;6.50;99.90;;;;;;7403817;19;20112;-54
2021/12/09 09:11:08;;;;;;;4.88;3.00;;;6.60;99.90;;;;;;7403628;19;20127;-54
2021/12/09 09:13:41;;;;;;;3.55;2.40;;;6.60;99.90;;;;;;7389542;19;20161;-54
2021/12/09 09:16:10;;;;;;;7.80;3.50;;;6.70;99.90;;;;;;7403225;19;20112;-54
2021/12/09 09:18:39;;;;;;;12.45;3.40;;;6.80;99.90;;;;;;7401844;19;20116;-54
2021/12/09 09:21:06;;;;;;;4.45;2.63;;;6.70;99.90;;;;;;7393950;19;20116;-53
2021/12/09 09:23:33;;;;;;;3.22;2.72;;;6.70;99.90;;;;;;7403675;19;20124;-54
2021/12/09 09:26:00;;;;;;;6.88;3.05;;;6.70;99.90;;;;;;7404895;19;20134;-54
2021/12/09 09:28:32;;;;;;;3.58;2.50;;;6.80;99.90;;;;;;7396375;19;22838;-54
2021/12/09 09:31:03;;;;;;;6.45;4.00;;;6.80;99.90;;;;;;7397061;19;20171;-53
2021/12/09 09:33:33;;;;;;;4.90;3.03;;;6.90;99.90;;;;;;7404131;19;20120;-54
2021/12/09 09:36:05;;;;;;;8.02;3.72;;;6.90;99.90;;;;;;7396007;19;20119;-54
2021/12/09 09:38:32;;;;;;;7.25;3.70;;;6.90;99.90;;;;;;7404514;19;20155;-55
2021/12/09 09:41:16;;;;;;;6.60;3.17;;;7.00;99.90;;;;;;7385539;19;20144;-54
2021/12/09 09:46:28;;;;;;;5.50;3.30;;;7.10;99.90;;;;;;7403779;19;20128;-53
2021/12/09 09:49:02;;;;;;;4.03;2.88;;;7.30;99.90;;;;;;7403789;19;20140;-54
2021/12/09 09:51:31;;;;;;;5.35;3.10;;;7.30;99.90;;;;;;7385482;19;20354;-54
2021/12/09 09:54:02;;;;;;;5.30;3.10;;;7.20;99.90;;;;;;7401503;19;20131;-54
2021/12/09 09:56:34;;;;;;;8.93;5.35;;;7.10;99.90;;;;;;7401463;19;20131;-54
2021/12/09 09:59:06;;;;;;;4.07;3.38;;;7.20;99.90;;;;;;7406773;19;20319;-54
2021/12/09 10:01:37;;;;;;;8.90;3.42;;;7.20;99.90;;;;;;7403337;19;20124;-54
2021/12/09 10:04:10;;;;;;;2.65;2.45;;;7.10;99.90;;;;;;7405590;19;20147;-54
2021/12/09 10:06:39;;;;;;;4.50;2.83;;;7.00;99.90;;;;;;7397632;19;20667;-54
2021/12/09 10:09:12;;;;;;;8.13;3.22;;;7.10;99.90;;;;;;7398527;19;20345;-54
2021/12/09 10:11:41;;;;;;;5.47;3.40;;;7.10;99.90;;;;;;7402753;19;20144;-54
2021/12/09 10:14:19;;;;;;;5.03;2.88;;;7.20;99.90;;;;;;7401506;19;20135;-54
2021/12/09 10:16:59;;;;;;;4.30;2.75;;;7.20;99.90;;;;;;7403081;19;20123;-54
2021/12/09 10:19:28;;;;;;;6.35;3.25;;;7.20;99.90;;;;;;7400163;19;20187;-54
2021/12/09 10:22:12;;;;;;;3.55;2.90;;;7.30;99.90;;;;;;7403201;19;20186;-53
2021/12/09 10:24:41;;;;;;;3.97;3.17;;;7.40;99.90;;;;;;7407611;19;20119;-54
2021/12/09 10:27:13;;;;;;;3.42;3.13;;;7.50;99.90;;;;;;7408546;19;20134;-54
2021/12/09 10:29:46;;;;;;;3.80;3.10;;;7.50;99.90;;;;;;7405244;19;20247;-54
2021/12/09 10:32:21;;;;;;;3.50;3.15;;;7.60;99.90;;;;;;7398713;19;20411;-54
2021/12/09 10:35:03;;;;;;;4.53;3.13;;;7.50;99.90;;;;;;7411660;19;20131;-54
2021/12/09 10:37:36;;;;;;;3.45;2.70;;;7.50;99.90;;;;;;7407544;19;20147;-54
2021/12/09 10:40:13;;;;;;;3.10;2.80;;;7.50;99.90;;;;;;7411970;19;20364;-54
2021/12/09 10:42:50;;;;;;;8.00;3.10;;;7.60;99.90;;;;;;7407155;19;20146;-54
2021/12/09 10:45:24;;;;;;;3.92;2.90;;;7.60;99.90;;;;;;7410052;19;20120;-54
2021/12/09 10:47:59;;;;;;;5.07;2.95;;;7.70;99.90;;;;;;7411191;19;20123;-54
2021/12/09 10:50:39;;;;;;;7.20;4.05;;;7.80;99.90;;;;;;7405900;19;20123;-50
2021/12/09 10:55:54;;;;;;;3.92;2.67;;;7.80;99.90;;;;;;7410781;19;20132;-50
2021/12/09 10:58:43;;;;;;;5.20;2.72;;;7.80;99.90;;;;;;7410683;19;20315;-50
2021/12/09 11:01:15;;;;;;;2.85;2.40;;;7.90;99.90;;;;;;7407438;19;20319;-50
2021/12/09 11:03:54;;;;;;;4.90;2.30;;;7.90;99.90;;;;;;7411070;19;20124;-50
2021/12/09 11:06:34;;;;;;;4.10;2.55;;;7.80;99.90;;;;;;7397920;19;20317;-50
2021/12/09 11:09:06;;;;;;;3.13;2.72;;;7.60;99.90;;;;;;7376892;19;20136;-50
2021/12/09 11:11:39;;;;;;;2.28;2.08;;;7.70;99.90;;;;;;7388557;19;20124;-50
2021/12/09 11:14:12;;;;;;;2.28;1.90;;;7.70;99.90;;;;;;7398508;19;20108;-50
2021/12/09 11:16:42;;;;;;;3.15;2.67;;;7.80;99.90;;;;;;7381096;19;20116;-50
2021/12/09 11:19:13;;;;;;;3.50;2.70;;;7.90;99.90;;;;;;7394887;19;20249;-50
2021/12/09 11:21:46;;;;;;;4.70;2.13;;;8.00;99.90;;;;;;7399212;19;20128;-54
2021/12/09 11:24:20;;;;;;;4.47;2.20;;;8.00;99.90;;;;;;7397938;19;20127;-54
2021/12/09 11:27:06;;;;;;;4.18;2.25;;;7.80;99.90;;;;;;7395725;19;20112;-53
2021/12/09 11:29:37;;;;;;;2.83;2.20;;;7.80;99.90;;;;;;7393554;19;20137;-54
2021/12/09 11:32:16;;;;;;;4.07;3.00;;;7.70;99.90;;;;;;7390178;19;20143;-54
2021/12/09 11:34:56;;;;;;;2.13;1.65;;;7.80;99.90;;;;;;7391351;19;20152;-54
2021/12/09 11:40:06;;;;;;;3.97;1.90;;;7.80;99.90;;;;;;7397577;19;20132;-54
2021/12/09 11:42:47;;;;;;;6.07;2.22;;;8.00;99.90;;;;;;7394645;19;20120;-54
2021/12/09 11:45:17;;;;;;;3.05;2.30;;;8.10;99.90;;;;;;7404973;19;20112;-54
2021/12/09 11:47:47;;;;;;;3.78;1.95;;;8.10;99.90;;;;;;7392378;19;20371;-54
2021/12/09 11:50:19;;;;;;;4.03;2.92;;;8.10;99.90;;;;;;7392815;19;20184;-50
2021/12/09 11:52:51;;;;;;;3.80;1.65;;;8.10;99.90;;;;;;7384137;19;20136;-50
2021/12/09 11:55:20;;;;;;;2.85;2.05;;;8.00;99.90;;;;;;7395996;19;20119;-50
2021/12/09 11:57:58;;;;;;;6.78;2.63;;;8.30;99.90;;;;;;7404477;19;20130;-50
2021/12/09 12:21:48;;;;;;;2.33;1.80;;;8.80;99.90;;;;;;7383935;19;20115;-51
2021/12/09 12:24:14;;;;;;;;;;;;;;;;;;;;;
2021/12/09 12:37:46;;;;;;;2.35;1.90;;;8.60;99.90;;;;;;7401788;19;20124;-51
2021/12/09 12:40:34;;;;;;;4.68;2.10;;;8.40;99.90;;;;;;7393738;19;20512;-51
2021/12/09 12:43:09;;;;;;;5.63;2.35;;;8.40;99.90;;;;;;7400559;19;20228;-51
2021/12/09 12:51:07;;;;;;;3.70;1.80;;;8.60;99.90;;;;;;7354564;19;20134;-51
2021/12/09 12:53:40;;;;;;;8.10;2.92;;;8.70;99.90;;;;;;7374071;19;20112;-51
2021/12/09 12:56:22;;;;;;;5.10;2.25;;;8.80;99.90;;;;;;7390988;19;20164;-51
2021/12/09 12:59:14;;;;;;;8.27;2.75;;;8.70;99.90;;;;;;7389672;19;20606;-51
2021/12/09 13:01:49;;;;;;;6.57;1.70;;;8.60;99.90;;;;;;7384545;19;20528;-51
2021/12/09 13:04:55;;;;;;;4.55;1.70;;;8.50;99.90;;;;;;7380028;19;20130;-51
2021/12/09 13:16:06;;;;;;;1.75;1.40;;;8.20;99.90;;;;;;7382642;19;20160;-51
2021/12/09 13:18:45;;;;;;;2.58;1.52;;;8.30;99.90;;;;;;7346398;19;20194;-51
2021/12/09 13:21:39;;;;;;;2.30;1.75;;;8.30;99.90;;;;;;7382377;19;20347;-55
2021/12/09 13:29:53;;;;;;;4.80;1.95;;;8.30;99.90;;;;;;7366188;19;20123;-52
2021/12/09 13:35:30;;;;;;;8.25;2.70;;;8.20;99.90;;;;;;7377776;19;20226;-52
2021/12/09 13:54:29;;;;;;;3.85;2.75;;;8.00;99.90;;;;;;7389124;19;20439;-54
2021/12/09 13:57:01;;;;;;;5.05;1.92;;;8.00;99.90;;;;;;7391440;19;20203;-54
2021/12/09 13:59:30;;;;;;;6.53;2.50;;;7.90;99.90;;;;;;7389044;19;20279;-49
2021/12/09 14:01:58;;;;;;;3.53;1.58;;;7.90;99.90;;;;;;7368257;19;20108;-48
2021/12/09 14:04:36;;;;;;;6.43;2.35;;;8.00;99.90;;;;;;7393659;19;20453;-49
2021/12/09 14:07:21;;;;;;;2.00;1.45;;;8.00;99.90;;;;;;7404005;19;20783;-49
2021/12/09 14:10:03;;;;;;;4.45;2.10;;;8.00;99.90;;;;;;7409437;19;20131;-49
2021/12/09 14:12:36;;;;;;;5.10;1.42;;;8.00;99.50;;;;;;7407208;19;20135;-49
2021/12/09 14:15:08;;;;;;;5.13;1.80;;;8.10;99.50;;;;;;7403316;19;20300;-49
2021/12/09 14:17:41;;;;;;;6.82;1.58;;;8.10;99.40;;;;;;7410462;19;20536;-49
2021/12/09 14:20:23;;;;;;;4.00;1.73;;;8.10;99.20;;;;;;7409904;19;20135;-49
2021/12/09 14:22:54;;;;;;;11.85;2.45;;;8.10;98.40;;;;;;7405414;19;20235;-49
2021/12/09 14:25:33;;;;;;;6.97;2.38;;;8.00;98.30;;;;;;7408659;19;21198;-49
2021/12/09 14:28:01;;;;;;;4.57;1.83;;;7.90;98.20;;;;;;7410014;19;20146;-49
2021/12/09 14:30:31;;;;;;;2.60;1.50;;;7.90;99.10;;;;;;7404615;19;20140;-53
2021/12/09 14:32:59;;;;;;;6.18;1.70;;;7.90;99.30;;;;;;7408879;19;20152;-53
2021/12/09 14:35:31;;;;;;;1.77;1.00;;;7.80;99.20;;;;;;7411281;19;20130;-53
2021/12/09 14:38:01;;;;;;;3.25;1.70;;;7.60;99.20;;;;;;7411175;19;20111;-53